Impacts METAR Board
IDs:

KEDC - Austin/Executive Arp, TX, US

Updated at: 0000 UTC 01 Nov 2020
Potential Impact None Slight Moderate High
Time 31/12Z 31/13Z 31/14Z 31/15Z 31/16Z 31/17Z 31/18Z 31/19Z 31/20Z 31/21Z 31/22Z 31/23Z 01/00Z
Temp43 41 55 70 72 73 75 75 73 70
Dewpt39 37 41 37 37 37 36 37 37 37
Altim30.22 30.23 30.24 30.25 30.20 30.16 30.13 30.11 30.10 30.10 30.11
VIS0.75 0.75 0.5 5 7 3 2.5 2 2 2
CIG5 5 -- 5 -- -- -- -- -- -- --
CoverOVXOVX--OVXCLRCLRCLRCLRCLRCLRCLR
FltCatLIFRLIFRLIFRMVFRVFRMVFRIFRIFRIFRIFR
WXBRHZ--HZHZ--HZHZHZHZHZ
WDir00000220230019000
WSpd0 0 0 0 0 7 7 0 6 0 0
WGst-- -- -- -- -- -- -- -- -- -- --
Raw hourly METARs
KEDC 311155Z AUTO 00000KT 3/4SM BR VV005 06/04 A3022 RMK AO2
KEDC 311255Z AUTO 00000KT 3/4SM HZ VV005 05/03 A3023 RMK AO2
KEDC 311355Z AUTO 00000KT A3024 RMK AO2
KEDC 311455Z AUTO 00000KT 1/2SM HZ VV005 13/05 A3025 RMK AO2


KEDC 311755Z AUTO 00000KT 5SM HZ CLR 21/03 A3020 RMK AO2
KEDC 311855Z AUTO 22007KT 7SM CLR 22/03 A3016 RMK AO2
KEDC 311955Z AUTO 23007KT 3SM HZ CLR 23/03 A3013 RMK AO2
KEDC 312055Z AUTO 00000KT 2 1/2SM HZ CLR 24/02 A3011 RMK AO2
KEDC 312155Z AUTO 19006KT 2SM HZ CLR 24/03 A3010 RMK AO2
KEDC 312255Z AUTO 00000KT 2SM HZ CLR 23/03 A3010 RMK AO2
KEDC 312355Z AUTO 00000KT 2SM HZ CLR 21/03 A3011 RMK AO2